sensor_id;sensor_type;location;lat;lon;timestamp;P1;durP1;ratioP1;P2;durP2;ratioP2
17365;SDS011;8800;50.118;9.900;2023-03-21T00:00:20;4.68;;;2.75;;
17365;SDS011;8800;50.118;9.900;2023-03-21T00:02:47;4.88;;;2.70;;
17365;SDS011;8800;50.118;9.900;2023-03-21T00:05:13;6.00;;;2.50;;
17365;SDS011;8800;50.118;9.900;2023-03-21T00:07:40;4.80;;;2.55;;
17365;SDS011;8800;50.118;9.900;2023-03-21T00:10:06;5.55;;;2.20;;
17365;SDS011;8800;50.118;9.900;2023-03-21T00:12:33;6.47;;;2.00;;
17365;SDS011;8800;50.118;9.900;2023-03-21T00:15:04;2.83;;;1.98;;
17365;SDS011;8800;50.118;9.900;2023-03-21T00:17:30;3.83;;;2.08;;
17365;SDS011;8800;50.118;9.900;2023-03-21T00:19:57;4.57;;;2.08;;
17365;SDS011;8800;50.118;9.900;2023-03-21T00:22:23;5.03;;;2.42;;
17365;SDS011;8800;50.118;9.900;2023-03-21T00:24:49;5.57;;;2.08;;
17365;SDS011;8800;50.118;9.900;2023-03-21T00:27:16;4.93;;;2.30;;
17365;SDS011;8800;50.118;9.900;2023-03-21T00:29:44;5.97;;;2.38;;
17365;SDS011;8800;50.118;9.900;2023-03-21T00:32:12;3.83;;;1.88;;
17365;SDS011;8800;50.118;9.900;2023-03-21T00:34:38;4.97;;;2.10;;
17365;SDS011;8800;50.118;9.900;2023-03-21T00:37:05;4.68;;;2.00;;
17365;SDS011;8800;50.118;9.900;2023-03-21T00:39:33;4.38;;;1.90;;
17365;SDS011;8800;50.118;9.900;2023-03-21T00:41:59;4.18;;;1.90;;
17365;SDS011;8800;50.118;9.900;2023-03-21T00:44:26;3.38;;;1.85;;
17365;SDS011;8800;50.118;9.900;2023-03-21T00:46:52;4.90;;;2.10;;
17365;SDS011;8800;50.118;9.900;2023-03-21T00:49:20;5.15;;;2.15;;
17365;SDS011;8800;50.118;9.900;2023-03-21T00:51:46;6.75;;;2.30;;
17365;SDS011;8800;50.118;9.900;2023-03-21T00:54:15;4.68;;;2.00;;
17365;SDS011;8800;50.118;9.900;2023-03-21T00:56:42;7.53;;;2.28;;
17365;SDS011;8800;50.118;9.900;2023-03-21T00:59:08;5.03;;;2.05;;
17365;SDS011;8800;50.118;9.900;2023-03-21T01:01:35;5.18;;;2.10;;
17365;SDS011;8800;50.118;9.900;2023-03-21T01:04:01;7.45;;;3.00;;
17365;SDS011;8800;50.118;9.900;2023-03-21T01:06:31;8.30;;;3.17;;
17365;SDS011;8800;50.118;9.900;2023-03-21T01:08:57;7.32;;;2.45;;
17365;SDS011;8800;50.118;9.900;2023-03-21T01:11:25;7.65;;;2.58;;
17365;SDS011;8800;50.118;9.900;2023-03-21T01:13:52;7.25;;;2.58;;
17365;SDS011;8800;50.118;9.900;2023-03-21T01:16:19;4.13;;;1.85;;
17365;SDS011;8800;50.118;9.900;2023-03-21T01:18:45;3.92;;;2.20;;
17365;SDS011;8800;50.118;9.900;2023-03-21T01:21:12;5.47;;;2.70;;
17365;SDS011;8800;50.118;9.900;2023-03-21T01:23:40;6.13;;;2.72;;
17365;SDS011;8800;50.118;9.900;2023-03-21T01:26:08;5.40;;;3.17;;
17365;SDS011;8800;50.118;9.900;2023-03-21T01:28:35;7.63;;;3.17;;
17365;SDS011;8800;50.118;9.900;2023-03-21T01:31:02;7.97;;;3.40;;
17365;SDS011;8800;50.118;9.900;2023-03-21T01:33:29;5.70;;;2.95;;
17365;SDS011;8800;50.118;9.900;2023-03-21T01:35:55;6.30;;;3.05;;
17365;SDS011;8800;50.118;9.900;2023-03-21T01:38:22;4.68;;;2.88;;
17365;SDS011;8800;50.118;9.900;2023-03-21T01:40:50;8.48;;;2.67;;
17365;SDS011;8800;50.118;9.900;2023-03-21T01:43:21;7.95;;;2.88;;
17365;SDS011;8800;50.118;9.900;2023-03-21T01:46:09;7.38;;;3.40;;
17365;SDS011;8800;50.118;9.900;2023-03-21T01:48:36;8.85;;;3.25;;
17365;SDS011;8800;50.118;9.900;2023-03-21T01:51:03;7.70;;;3.55;;
17365;SDS011;8800;50.118;9.900;2023-03-21T01:53:31;8.40;;;3.00;;
17365;SDS011;8800;50.118;9.900;2023-03-21T01:56:01;7.68;;;3.20;;
17365;SDS011;8800;50.118;9.900;2023-03-21T01:58:28;9.88;;;3.70;;
17365;SDS011;8800;50.118;9.900;2023-03-21T02:00:56;6.38;;;3.58;;
17365;SDS011;8800;50.118;9.900;2023-03-21T02:03:22;7.15;;;3.15;;
17365;SDS011;8800;50.118;9.900;2023-03-21T02:05:50;9.15;;;3.00;;
17365;SDS011;8800;50.118;9.900;2023-03-21T02:08:17;5.43;;;2.75;;
17365;SDS011;8800;50.118;9.900;2023-03-21T02:10:44;5.18;;;2.60;;
17365;SDS011;8800;50.118;9.900;2023-03-21T02:13:13;8.43;;;2.80;;
17365;SDS011;8800;50.118;9.900;2023-03-21T02:15:40;6.60;;;2.38;;
17365;SDS011;8800;50.118;9.900;2023-03-21T02:18:09;4.10;;;2.40;;
17365;SDS011;8800;50.118;9.900;2023-03-21T02:20:48;5.05;;;2.17;;
17365;SDS011;8800;50.118;9.900;2023-03-21T02:28:52;4.20;;;2.35;;
17365;SDS011;8800;50.118;9.900;2023-03-21T02:31:25;7.45;;;3.10;;
17365;SDS011;8800;50.118;9.900;2023-03-21T02:34:02;4.65;;;2.80;;
17365;SDS011;8800;50.118;9.900;2023-03-21T02:36:46;6.43;;;3.47;;
17365;SDS011;8800;50.118;9.900;2023-03-21T02:39:13;7.88;;;3.10;;
17365;SDS011;8800;50.118;9.900;2023-03-21T02:41:44;10.48;;;3.42;;
17365;SDS011;8800;50.118;9.900;2023-03-21T02:44:15;6.75;;;2.80;;
17365;SDS011;8800;50.118;9.900;2023-03-21T02:46:44;4.82;;;3.08;;
17365;SDS011;8800;50.118;9.900;2023-03-21T02:49:11;8.85;;;3.60;;
17365;SDS011;8800;50.118;9.900;2023-03-21T02:51:39;9.30;;;3.22;;
17365;SDS011;8800;50.118;9.900;2023-03-21T02:54:09;7.30;;;3.08;;
17365;SDS011;8800;50.118;9.900;2023-03-21T02:56:37;9.55;;;2.95;;
17365;SDS011;8800;50.118;9.900;2023-03-21T02:59:04;6.88;;;3.08;;
17365;SDS011;8800;50.118;9.900;2023-03-21T03:01:31;6.95;;;3.28;;
17365;SDS011;8800;50.118;9.900;2023-03-21T03:03:58;7.20;;;3.33;;
17365;SDS011;8800;50.118;9.900;2023-03-21T03:06:25;7.15;;;3.10;;
17365;SDS011;8800;50.118;9.900;2023-03-21T03:09:06;6.28;;;3.25;;
17365;SDS011;8800;50.118;9.900;2023-03-21T03:11:36;6.80;;;3.13;;
17365;SDS011;8800;50.118;9.900;2023-03-21T03:14:12;7.50;;;3.28;;
17365;SDS011;8800;50.118;9.900;2023-03-21T03:16:42;6.63;;;3.50;;
17365;SDS011;8800;50.118;9.900;2023-03-21T03:19:14;9.50;;;3.22;;
17365;SDS011;8800;50.118;9.900;2023-03-21T03:21:43;7.40;;;3.15;;
17365;SDS011;8800;50.118;9.900;2023-03-21T03:24:13;8.05;;;3.33;;
17365;SDS011;8800;50.118;9.900;2023-03-21T03:26:43;7.43;;;3.05;;
17365;SDS011;8800;50.118;9.900;2023-03-21T03:29:12;6.28;;;2.95;;
17365;SDS011;8800;50.118;9.900;2023-03-21T03:31:42;6.70;;;3.00;;
17365;SDS011;8800;50.118;9.900;2023-03-21T03:34:11;8.35;;;3.40;;
17365;SDS011;8800;50.118;9.900;2023-03-21T03:36:39;7.70;;;3.22;;
17365;SDS011;8800;50.118;9.900;2023-03-21T03:39:07;6.35;;;3.30;;
17365;SDS011;8800;50.118;9.900;2023-03-21T03:41:36;9.20;;;3.25;;
17365;SDS011;8800;50.118;9.900;2023-03-21T03:44:07;5.85;;;2.90;;
17365;SDS011;8800;50.118;9.900;2023-03-21T03:46:34;5.97;;;2.97;;
17365;SDS011;8800;50.118;9.900;2023-03-21T03:49:03;8.52;;;3.53;;
17365;SDS011;8800;50.118;9.900;2023-03-21T03:51:31;7.43;;;3.75;;
17365;SDS011;8800;50.118;9.900;2023-03-21T03:54:00;7.88;;;3.25;;
17365;SDS011;8800;50.118;9.900;2023-03-21T03:56:28;6.70;;;3.47;;
17365;SDS011;8800;50.118;9.900;2023-03-21T03:58:55;10.55;;;3.50;;
17365;SDS011;8800;50.118;9.900;2023-03-21T04:01:23;7.18;;;3.85;;
17365;SDS011;8800;50.118;9.900;2023-03-21T04:03:50;10.52;;;3.70;;
17365;SDS011;8800;50.118;9.900;2023-03-21T04:06:17;5.97;;;2.97;;
17365;SDS011;8800;50.118;9.900;2023-03-21T04:08:43;6.00;;;3.30;;
17365;SDS011;8800;50.118;9.900;2023-03-21T04:11:11;7.65;;;3.15;;
17365;SDS011;8800;50.118;9.900;2023-03-21T04:13:38;6.78;;;2.90;;
17365;SDS011;8800;50.118;9.900;2023-03-21T04:16:04;7.03;;;2.65;;
17365;SDS011;8800;50.118;9.900;2023-03-21T04:18:33;5.15;;;3.00;;
17365;SDS011;8800;50.118;9.900;2023-03-21T04:20:59;8.93;;;2.92;;
17365;SDS011;8800;50.118;9.900;2023-03-21T04:23:26;6.53;;;2.63;;
17365;SDS011;8800;50.118;9.900;2023-03-21T04:25:53;5.63;;;2.90;;
17365;SDS011;8800;50.118;9.900;2023-03-21T04:28:19;6.10;;;2.80;;
17365;SDS011;8800;50.118;9.900;2023-03-21T04:30:47;5.30;;;2.70;;
17365;SDS011;8800;50.118;9.900;2023-03-21T04:33:14;6.47;;;3.00;;
17365;SDS011;8800;50.118;9.900;2023-03-21T04:35:42;6.75;;;2.55;;
17365;SDS011;8800;50.118;9.900;2023-03-21T04:38:09;5.75;;;2.90;;
17365;SDS011;8800;50.118;9.900;2023-03-21T04:40:36;7.25;;;3.08;;
17365;SDS011;8800;50.118;9.900;2023-03-21T04:43:02;6.72;;;3.00;;
17365;SDS011;8800;50.118;9.900;2023-03-21T04:45:29;8.27;;;3.13;;
17365;SDS011;8800;50.118;9.900;2023-03-21T04:47:55;7.82;;;2.70;;
17365;SDS011;8800;50.118;9.900;2023-03-21T04:50:22;6.50;;;2.83;;
17365;SDS011;8800;50.118;9.900;2023-03-21T04:52:50;9.93;;;2.90;;
17365;SDS011;8800;50.118;9.900;2023-03-21T04:55:16;7.18;;;2.90;;
17365;SDS011;8800;50.118;9.900;2023-03-21T04:57:45;6.35;;;2.90;;
17365;SDS011;8800;50.118;9.900;2023-03-21T05:00:12;7.75;;;3.28;;
17365;SDS011;8800;50.118;9.900;2023-03-21T05:02:39;8.48;;;3.10;;
17365;SDS011;8800;50.118;9.900;2023-03-21T05:05:06;5.07;;;3.10;;
17365;SDS011;8800;50.118;9.900;2023-03-21T05:07:35;5.70;;;3.15;;
17365;SDS011;8800;50.118;9.900;2023-03-21T05:10:03;5.80;;;3.05;;
17365;SDS011;8800;50.118;9.900;2023-03-21T05:12:30;7.20;;;3.10;;
17365;SDS011;8800;50.118;9.900;2023-03-21T05:14:56;6.93;;;3.47;;
17365;SDS011;8800;50.118;9.900;2023-03-21T05:17:23;8.70;;;3.60;;
17365;SDS011;8800;50.118;9.900;2023-03-21T05:19:52;6.82;;;3.40;;
17365;SDS011;8800;50.118;9.900;2023-03-21T05:22:20;5.75;;;3.22;;
17365;SDS011;8800;50.118;9.900;2023-03-21T05:24:48;6.20;;;3.15;;
17365;SDS011;8800;50.118;9.900;2023-03-21T05:27:16;7.25;;;3.22;;
17365;SDS011;8800;50.118;9.900;2023-03-21T05:29:58;6.55;;;3.22;;
17365;SDS011;8800;50.118;9.900;2023-03-21T05:32:25;7.68;;;3.70;;
17365;SDS011;8800;50.118;9.900;2023-03-21T05:34:51;9.30;;;4.15;;
17365;SDS011;8800;50.118;9.900;2023-03-21T05:37:18;9.05;;;3.72;;
17365;SDS011;8800;50.118;9.900;2023-03-21T05:39:44;8.00;;;4.28;;
17365;SDS011;8800;50.118;9.900;2023-03-21T05:42:10;10.00;;;3.88;;
17365;SDS011;8800;50.118;9.900;2023-03-21T05:44:38;8.13;;;4.60;;
17365;SDS011;8800;50.118;9.900;2023-03-21T05:47:05;10.88;;;5.57;;
17365;SDS011;8800;50.118;9.900;2023-03-21T05:49:32;11.45;;;6.00;;
17365;SDS011;8800;50.118;9.900;2023-03-21T05:51:59;12.95;;;5.43;;
17365;SDS011;8800;50.118;9.900;2023-03-21T05:54:25;9.68;;;5.40;;
17365;SDS011;8800;50.118;9.900;2023-03-21T05:56:51;13.98;;;5.85;;
17365;SDS011;8800;50.118;9.900;2023-03-21T05:59:18;13.48;;;6.05;;
17365;SDS011;8800;50.118;9.900;2023-03-21T06:01:45;13.98;;;6.00;;
17365;SDS011;8800;50.118;9.900;2023-03-21T06:04:12;8.23;;;3.63;;
17365;SDS011;8800;50.118;9.900;2023-03-21T06:06:38;9.95;;;3.67;;
17365;SDS011;8800;50.118;9.900;2023-03-21T06:09:05;11.85;;;3.85;;
17365;SDS011;8800;50.118;9.900;2023-03-21T06:11:32;7.18;;;3.75;;
17365;SDS011;8800;50.118;9.900;2023-03-21T06:13:58;8.32;;;3.65;;
17365;SDS011;8800;50.118;9.900;2023-03-21T06:16:25;8.18;;;4.07;;
17365;SDS011;8800;50.118;9.900;2023-03-21T06:18:54;9.68;;;3.75;;
17365;SDS011;8800;50.118;9.900;2023-03-21T06:21:24;9.60;;;4.18;;
17365;SDS011;8800;50.118;9.900;2023-03-21T06:23:53;8.77;;;3.88;;
17365;SDS011;8800;50.118;9.900;2023-03-21T06:26:19;8.23;;;3.80;;
17365;SDS011;8800;50.118;9.900;2023-03-21T06:28:47;7.88;;;3.83;;
17365;SDS011;8800;50.118;9.900;2023-03-21T06:31:13;11.00;;;4.13;;
17365;SDS011;8800;50.118;9.900;2023-03-21T06:33:40;9.70;;;3.75;;
17365;SDS011;8800;50.118;9.900;2023-03-21T06:36:08;8.35;;;3.97;;
17365;SDS011;8800;50.118;9.900;2023-03-21T06:38:35;6.95;;;3.97;;
17365;SDS011;8800;50.118;9.900;2023-03-21T06:41:02;8.48;;;3.78;;
17365;SDS011;8800;50.118;9.900;2023-03-21T06:43:29;7.15;;;3.25;;
17365;SDS011;8800;50.118;9.900;2023-03-21T06:45:56;7.60;;;3.22;;
17365;SDS011;8800;50.118;9.900;2023-03-21T06:48:22;7.97;;;3.38;;
17365;SDS011;8800;50.118;9.900;2023-03-21T06:50:49;8.55;;;3.65;;
17365;SDS011;8800;50.118;9.900;2023-03-21T06:53:17;5.55;;;3.63;;
17365;SDS011;8800;50.118;9.900;2023-03-21T06:55:47;7.22;;;3.60;;
17365;SDS011;8800;50.118;9.900;2023-03-21T06:58:14;6.30;;;3.47;;
17365;SDS011;8800;50.118;9.900;2023-03-21T07:00:40;8.45;;;3.00;;
17365;SDS011;8800;50.118;9.900;2023-03-21T07:03:07;7.28;;;3.53;;
17365;SDS011;8800;50.118;9.900;2023-03-21T07:05:33;10.73;;;3.90;;
17365;SDS011;8800;50.118;9.900;2023-03-21T07:08:00;8.65;;;4.57;;
17365;SDS011;8800;50.118;9.900;2023-03-21T07:10:28;6.75;;;4.30;;
17365;SDS011;8800;50.118;9.900;2023-03-21T07:12:54;7.38;;;4.43;;
17365;SDS011;8800;50.118;9.900;2023-03-21T07:15:21;10.25;;;4.32;;
17365;SDS011;8800;50.118;9.900;2023-03-21T07:17:47;6.18;;;3.80;;
17365;SDS011;8800;50.118;9.900;2023-03-21T07:20:13;5.10;;;3.50;;
17365;SDS011;8800;50.118;9.900;2023-03-21T07:22:40;7.80;;;3.58;;
17365;SDS011;8800;50.118;9.900;2023-03-21T07:25:07;4.97;;;2.90;;
17365;SDS011;8800;50.118;9.900;2023-03-21T07:27:35;7.68;;;2.60;;
17365;SDS011;8800;50.118;9.900;2023-03-21T07:30:01;7.93;;;2.67;;
17365;SDS011;8800;50.118;9.900;2023-03-21T07:32:30;6.25;;;2.60;;
17365;SDS011;8800;50.118;9.900;2023-03-21T07:34:57;7.43;;;2.53;;
17365;SDS011;8800;50.118;9.900;2023-03-21T07:37:24;5.30;;;2.72;;
17365;SDS011;8800;50.118;9.900;2023-03-21T07:39:50;8.52;;;2.53;;
17365;SDS011;8800;50.118;9.900;2023-03-21T07:42:17;6.93;;;2.92;;
17365;SDS011;8800;50.118;9.900;2023-03-21T07:44:45;5.70;;;2.45;;
17365;SDS011;8800;50.118;9.900;2023-03-21T07:47:12;5.38;;;2.22;;
17365;SDS011;8800;50.118;9.900;2023-03-21T07:49:38;8.95;;;2.50;;
17365;SDS011;8800;50.118;9.900;2023-03-21T07:52:04;6.28;;;2.85;;
17365;SDS011;8800;50.118;9.900;2023-03-21T07:54:31;7.35;;;2.70;;
17365;SDS011;8800;50.118;9.900;2023-03-21T07:56:58;6.00;;;2.67;;
17365;SDS011;8800;50.118;9.900;2023-03-21T07:59:24;11.18;;;3.25;;
17365;SDS011;8800;50.118;9.900;2023-03-21T08:01:52;8.43;;;2.85;;
17365;SDS011;8800;50.118;9.900;2023-03-21T08:04:18;7.60;;;2.55;;
17365;SDS011;8800;50.118;9.900;2023-03-21T08:06:45;8.15;;;3.00;;
17365;SDS011;8800;50.118;9.900;2023-03-21T08:09:11;7.40;;;2.70;;
17365;SDS011;8800;50.118;9.900;2023-03-21T08:11:38;8.98;;;3.08;;
17365;SDS011;8800;50.118;9.900;2023-03-21T08:14:05;4.97;;;2.63;;
17365;SDS011;8800;50.118;9.900;2023-03-21T08:16:31;9.25;;;2.38;;
17365;SDS011;8800;50.118;9.900;2023-03-21T08:18:59;6.47;;;2.90;;
17365;SDS011;8800;50.118;9.900;2023-03-21T08:21:25;6.68;;;2.83;;
17365;SDS011;8800;50.118;9.900;2023-03-21T08:23:52;6.38;;;2.53;;
17365;SDS011;8800;50.118;9.900;2023-03-21T08:26:18;4.55;;;2.35;;
17365;SDS011;8800;50.118;9.900;2023-03-21T08:28:45;6.60;;;2.30;;
17365;SDS011;8800;50.118;9.900;2023-03-21T08:31:12;7.72;;;2.88;;
17365;SDS011;8800;50.118;9.900;2023-03-21T08:33:38;6.28;;;2.78;;
17365;SDS011;8800;50.118;9.900;2023-03-21T08:36:07;6.03;;;2.60;;
17365;SDS011;8800;50.118;9.900;2023-03-21T08:38:33;10.90;;;3.05;;
17365;SDS011;8800;50.118;9.900;2023-03-21T08:41:00;9.25;;;3.58;;
17365;SDS011;8800;50.118;9.900;2023-03-21T08:43:26;7.32;;;3.50;;
17365;SDS011;8800;50.118;9.900;2023-03-21T08:45:53;6.93;;;2.65;;
17365;SDS011;8800;50.118;9.900;2023-03-21T08:48:19;8.00;;;3.15;;
17365;SDS011;8800;50.118;9.900;2023-03-21T08:50:46;5.80;;;2.90;;
17365;SDS011;8800;50.118;9.900;2023-03-21T08:53:14;6.78;;;2.80;;
17365;SDS011;8800;50.118;9.900;2023-03-21T08:55:40;6.57;;;3.15;;
17365;SDS011;8800;50.118;9.900;2023-03-21T08:58:06;6.80;;;3.17;;
17365;SDS011;8800;50.118;9.900;2023-03-21T09:00:33;11.43;;;2.63;;
17365;SDS011;8800;50.118;9.900;2023-03-21T09:02:59;7.35;;;3.35;;
17365;SDS011;8800;50.118;9.900;2023-03-21T09:05:26;8.70;;;3.60;;
17365;SDS011;8800;50.118;9.900;2023-03-21T09:07:52;11.75;;;3.10;;
17365;SDS011;8800;50.118;9.900;2023-03-21T09:10:21;7.00;;;3.67;;
17365;SDS011;8800;50.118;9.900;2023-03-21T09:12:48;10.05;;;3.50;;
17365;SDS011;8800;50.118;9.900;2023-03-21T09:15:14;8.77;;;3.38;;
17365;SDS011;8800;50.118;9.900;2023-03-21T09:17:42;7.55;;;3.45;;
17365;SDS011;8800;50.118;9.900;2023-03-21T09:20:14;10.57;;;3.80;;
17365;SDS011;8800;50.118;9.900;2023-03-21T09:22:42;7.78;;;3.15;;
17365;SDS011;8800;50.118;9.900;2023-03-21T09:25:09;8.48;;;3.00;;
17365;SDS011;8800;50.118;9.900;2023-03-21T09:27:38;7.93;;;3.30;;
17365;SDS011;8800;50.118;9.900;2023-03-21T09:30:05;11.20;;;3.78;;
17365;SDS011;8800;50.118;9.900;2023-03-21T09:32:33;10.65;;;3.70;;
17365;SDS011;8800;50.118;9.900;2023-03-21T09:35:00;7.10;;;3.33;;
17365;SDS011;8800;50.118;9.900;2023-03-21T09:37:26;10.15;;;4.10;;
17365;SDS011;8800;50.118;9.900;2023-03-21T09:39:53;12.65;;;3.50;;
17365;SDS011;8800;50.118;9.900;2023-03-21T09:42:24;11.70;;;3.60;;
17365;SDS011;8800;50.118;9.900;2023-03-21T09:44:58;11.10;;;4.07;;
17365;SDS011;8800;50.118;9.900;2023-03-21T09:47:28;8.63;;;3.63;;
17365;SDS011;8800;50.118;9.900;2023-03-21T09:49:57;10.18;;;3.67;;
17365;SDS011;8800;50.118;9.900;2023-03-21T09:52:26;10.18;;;3.45;;
17365;SDS011;8800;50.118;9.900;2023-03-21T09:54:54;15.68;;;4.18;;
17365;SDS011;8800;50.118;9.900;2023-03-21T09:57:23;10.23;;;3.80;;
17365;SDS011;8800;50.118;9.900;2023-03-21T09:59:52;8.10;;;3.47;;
17365;SDS011;8800;50.118;9.900;2023-03-21T10:02:24;11.80;;;4.10;;
17365;SDS011;8800;50.118;9.900;2023-03-21T10:04:56;11.05;;;4.28;;
17365;SDS011;8800;50.118;9.900;2023-03-21T10:07:22;9.60;;;3.75;;
17365;SDS011;8800;50.118;9.900;2023-03-21T10:09:49;10.45;;;3.75;;
17365;SDS011;8800;50.118;9.900;2023-03-21T10:12:18;11.15;;;3.63;;
17365;SDS011;8800;50.118;9.900;2023-03-21T10:14:46;11.13;;;3.40;;
17365;SDS011;8800;50.118;9.900;2023-03-21T10:17:16;10.55;;;3.55;;
17365;SDS011;8800;50.118;9.900;2023-03-21T10:19:48;9.13;;;3.50;;
17365;SDS011;8800;50.118;9.900;2023-03-21T10:22:15;9.80;;;3.78;;
17365;SDS011;8800;50.118;9.900;2023-03-21T10:24:41;8.05;;;3.50;;
17365;SDS011;8800;50.118;9.900;2023-03-21T10:27:08;8.50;;;3.40;;
17365;SDS011;8800;50.118;9.900;2023-03-21T10:29:38;7.57;;;3.08;;
17365;SDS011;8800;50.118;9.900;2023-03-21T10:32:07;7.35;;;3.38;;
17365;SDS011;8800;50.118;9.900;2023-03-21T10:34:35;8.55;;;3.05;;
17365;SDS011;8800;50.118;9.900;2023-03-21T10:37:03;7.50;;;3.33;;
17365;SDS011;8800;50.118;9.900;2023-03-21T10:39:31;9.75;;;3.67;;
17365;SDS011;8800;50.118;9.900;2023-03-21T10:41:59;9.80;;;3.55;;
17365;SDS011;8800;50.118;9.900;2023-03-21T10:44:28;7.55;;;3.45;;
17365;SDS011;8800;50.118;9.900;2023-03-21T10:46:55;9.70;;;3.40;;
17365;SDS011;8800;50.118;9.900;2023-03-21T10:49:22;7.93;;;3.00;;
17365;SDS011;8800;50.118;9.900;2023-03-21T10:51:51;7.25;;;2.90;;
17365;SDS011;8800;50.118;9.900;2023-03-21T10:54:21;7.53;;;3.28;;
17365;SDS011;8800;50.118;9.900;2023-03-21T10:56:54;6.95;;;2.45;;
17365;SDS011;8800;50.118;9.900;2023-03-21T10:59:22;6.07;;;2.60;;
17365;SDS011;8800;50.118;9.900;2023-03-21T11:01:49;7.82;;;3.05;;
17365;SDS011;8800;50.118;9.900;2023-03-21T11:04:17;7.55;;;2.95;;
17365;SDS011;8800;50.118;9.900;2023-03-21T11:06:43;9.15;;;3.25;;
17365;SDS011;8800;50.118;9.900;2023-03-21T11:09:13;8.35;;;3.33;;
17365;SDS011;8800;50.118;9.900;2023-03-21T11:11:47;6.80;;;2.92;;
17365;SDS011;8800;50.118;9.900;2023-03-21T11:14:23;8.48;;;2.97;;
17365;SDS011;8800;50.118;9.900;2023-03-21T11:16:50;7.05;;;2.88;;
17365;SDS011;8800;50.118;9.900;2023-03-21T11:19:17;6.63;;;3.10;;
17365;SDS011;8800;50.118;9.900;2023-03-21T11:21:44;7.90;;;2.90;;
17365;SDS011;8800;50.118;9.900;2023-03-21T11:24:11;5.45;;;2.58;;
17365;SDS011;8800;50.118;9.900;2023-03-21T11:26:40;7.10;;;2.72;;
17365;SDS011;8800;50.118;9.900;2023-03-21T11:29:12;7.85;;;2.47;;
17365;SDS011;8800;50.118;9.900;2023-03-21T11:31:42;7.68;;;3.13;;
17365;SDS011;8800;50.118;9.900;2023-03-21T11:34:08;7.65;;;3.00;;
17365;SDS011;8800;50.118;9.900;2023-03-21T11:36:47;9.48;;;3.22;;
17365;SDS011;8800;50.118;9.900;2023-03-21T11:39:23;8.48;;;3.15;;
17365;SDS011;8800;50.118;9.900;2023-03-21T11:41:54;6.30;;;2.90;;
17365;SDS011;8800;50.118;9.900;2023-03-21T11:44:28;9.05;;;2.90;;
17365;SDS011;8800;50.118;9.900;2023-03-21T11:46:54;7.38;;;2.38;;
17365;SDS011;8800;50.118;9.900;2023-03-21T11:49:21;7.50;;;2.90;;
17365;SDS011;8800;50.118;9.900;2023-03-21T11:51:50;5.38;;;2.58;;
17365;SDS011;8800;50.118;9.900;2023-03-21T11:54:20;11.35;;;2.90;;
17365;SDS011;8800;50.118;9.900;2023-03-21T11:56:51;6.80;;;2.65;;
17365;SDS011;8800;50.118;9.900;2023-03-21T11:59:23;8.43;;;3.00;;
17365;SDS011;8800;50.118;9.900;2023-03-21T12:01:54;5.72;;;2.80;;
17365;SDS011;8800;50.118;9.900;2023-03-21T12:04:37;9.43;;;2.80;;
17365;SDS011;8800;50.118;9.900;2023-03-21T12:07:08;9.43;;;2.60;;
17365;SDS011;8800;50.118;9.900;2023-03-21T12:09:38;9.18;;;2.70;;
17365;SDS011;8800;50.118;9.900;2023-03-21T12:12:13;7.93;;;2.70;;
17365;SDS011;8800;50.118;9.900;2023-03-21T12:14:46;5.70;;;2.45;;
17365;SDS011;8800;50.118;9.900;2023-03-21T12:17:19;7.50;;;2.53;;
17365;SDS011;8800;50.118;9.900;2023-03-21T12:20:00;7.10;;;2.28;;
17365;SDS011;8800;50.118;9.900;2023-03-21T12:22:33;5.95;;;1.98;;
17365;SDS011;8800;50.118;9.900;2023-03-21T12:25:04;4.47;;;1.52;;
17365;SDS011;8800;50.118;9.900;2023-03-21T12:27:34;8.82;;;1.75;;
17365;SDS011;8800;50.118;9.900;2023-03-21T12:30:10;5.35;;;1.58;;
17365;SDS011;8800;50.118;9.900;2023-03-21T12:32:42;4.47;;;1.45;;
17365;SDS011;8800;50.118;9.900;2023-03-21T12:35:15;4.97;;;1.60;;
17365;SDS011;8800;50.118;9.900;2023-03-21T12:37:48;3.30;;;1.48;;
17365;SDS011;8800;50.118;9.900;2023-03-21T12:40:19;7.82;;;2.08;;
17365;SDS011;8800;50.118;9.900;2023-03-21T12:45:47;4.18;;;1.30;;
17365;SDS011;8800;50.118;9.900;2023-03-21T12:48:16;5.68;;;2.15;;
17365;SDS011;8800;50.118;9.900;2023-03-21T12:50:44;7.05;;;1.67;;
17365;SDS011;8800;50.118;9.900;2023-03-21T12:53:16;6.57;;;1.63;;
17365;SDS011;8800;50.118;9.900;2023-03-21T12:55:44;7.88;;;1.75;;
17365;SDS011;8800;50.118;9.900;2023-03-21T12:58:13;9.25;;;2.63;;
17365;SDS011;8800;50.118;9.900;2023-03-21T13:00:43;8.52;;;3.50;;
17365;SDS011;8800;50.118;9.900;2023-03-21T13:03:12;6.97;;;3.10;;
17365;SDS011;8800;50.118;9.900;2023-03-21T13:05:42;11.00;;;4.60;;
17365;SDS011;8800;50.118;9.900;2023-03-21T13:08:13;6.18;;;1.60;;
17365;SDS011;8800;50.118;9.900;2023-03-21T13:10:42;6.75;;;1.95;;
17365;SDS011;8800;50.118;9.900;2023-03-21T13:13:11;3.78;;;1.48;;
17365;SDS011;8800;50.118;9.900;2023-03-21T13:15:50;4.05;;;1.48;;
17365;SDS011;8800;50.118;9.900;2023-03-21T13:18:22;3.97;;;1.20;;
17365;SDS011;8800;50.118;9.900;2023-03-21T13:20:51;3.25;;;1.42;;
17365;SDS011;8800;50.118;9.900;2023-03-21T13:23:21;4.13;;;1.33;;
17365;SDS011;8800;50.118;9.900;2023-03-21T13:25:48;4.53;;;1.27;;
17365;SDS011;8800;50.118;9.900;2023-03-21T13:28:17;6.55;;;1.67;;
17365;SDS011;8800;50.118;9.900;2023-03-21T13:30:43;4.78;;;1.45;;
17365;SDS011;8800;50.118;9.900;2023-03-21T13:33:11;5.60;;;1.30;;
17365;SDS011;8800;50.118;9.900;2023-03-21T13:35:40;7.28;;;1.40;;
17365;SDS011;8800;50.118;9.900;2023-03-21T13:38:10;4.57;;;1.30;;
17365;SDS011;8800;50.118;9.900;2023-03-21T13:40:39;4.50;;;1.20;;
17365;SDS011;8800;50.118;9.900;2023-03-21T13:43:22;4.57;;;1.50;;
17365;SDS011;8800;50.118;9.900;2023-03-21T13:45:56;3.47;;;1.25;;
17365;SDS011;8800;50.118;9.900;2023-03-21T13:48:30;5.72;;;1.48;;
17365;SDS011;8800;50.118;9.900;2023-03-21T13:51:00;2.75;;;1.10;;
17365;SDS011;8800;50.118;9.900;2023-03-21T13:53:30;2.45;;;1.25;;
17365;SDS011;8800;50.118;9.900;2023-03-21T13:55:58;6.05;;;1.63;;
17365;SDS011;8800;50.118;9.900;2023-03-21T13:58:31;7.03;;;2.78;;
17365;SDS011;8800;50.118;9.900;2023-03-21T14:01:09;5.63;;;1.92;;
17365;SDS011;8800;50.118;9.900;2023-03-21T14:03:37;8.00;;;2.80;;
17365;SDS011;8800;50.118;9.900;2023-03-21T14:06:05;7.72;;;2.13;;
17365;SDS011;8800;50.118;9.900;2023-03-21T14:08:33;5.78;;;1.60;;
17365;SDS011;8800;50.118;9.900;2023-03-21T14:11:02;7.78;;;3.03;;
17365;SDS011;8800;50.118;9.900;2023-03-21T14:13:30;5.15;;;2.50;;
17365;SDS011;8800;50.118;9.900;2023-03-21T14:15:58;6.38;;;2.28;;
17365;SDS011;8800;50.118;9.900;2023-03-21T14:18:26;5.38;;;2.00;;
17365;SDS011;8800;50.118;9.900;2023-03-21T14:20:53;9.82;;;2.63;;
17365;SDS011;8800;50.118;9.900;2023-03-21T14:23:21;6.43;;;3.03;;
17365;SDS011;8800;50.118;9.900;2023-03-21T14:25:48;5.40;;;2.10;;
17365;SDS011;8800;50.118;9.900;2023-03-21T14:28:16;6.45;;;2.25;;
17365;SDS011;8800;50.118;9.900;2023-03-21T14:30:43;10.68;;;6.80;;
17365;SDS011;8800;50.118;9.900;2023-03-21T14:33:12;11.35;;;6.10;;
17365;SDS011;8800;50.118;9.900;2023-03-21T14:35:40;7.32;;;3.38;;
17365;SDS011;8800;50.118;9.900;2023-03-21T14:38:07;8.88;;;3.97;;
17365;SDS011;8800;50.118;9.900;2023-03-21T14:40:35;11.13;;;4.07;;
17365;SDS011;8800;50.118;9.900;2023-03-21T14:43:03;9.88;;;3.88;;
17365;SDS011;8800;50.118;9.900;2023-03-21T14:45:29;13.65;;;4.95;;
17365;SDS011;8800;50.118;9.900;2023-03-21T14:47:57;12.40;;;5.90;;
17365;SDS011;8800;50.118;9.900;2023-03-21T14:50:26;12.07;;;4.88;;
17365;SDS011;8800;50.118;9.900;2023-03-21T14:52:53;6.97;;;3.22;;
17365;SDS011;8800;50.118;9.900;2023-03-21T14:55:20;8.57;;;3.30;;
17365;SDS011;8800;50.118;9.900;2023-03-21T14:57:48;8.32;;;3.22;;
17365;SDS011;8800;50.118;9.900;2023-03-21T15:00:18;8.70;;;3.78;;
17365;SDS011;8800;50.118;9.900;2023-03-21T15:02:45;9.95;;;4.10;;
17365;SDS011;8800;50.118;9.900;2023-03-21T15:05:14;6.93;;;3.70;;
17365;SDS011;8800;50.118;9.900;2023-03-21T15:07:41;11.73;;;4.25;;
17365;SDS011;8800;50.118;9.900;2023-03-21T15:10:11;7.38;;;3.60;;
17365;SDS011;8800;50.118;9.900;2023-03-21T15:12:49;12.15;;;4.78;;
17365;SDS011;8800;50.118;9.900;2023-03-21T15:15:16;8.40;;;3.35;;